sensor_id;sensor_type;location;lat;lon;timestamp;P1;durP1;ratioP1;P2;durP2;ratioP2
10031;SDS011;5056;44.272;19.892;2022-07-04T00:02:27;11.32;;;10.40;;
10031;SDS011;5056;44.272;19.892;2022-07-04T00:04:56;11.48;;;10.65;;
10031;SDS011;5056;44.272;19.892;2022-07-04T00:07:23;12.90;;;11.57;;
10031;SDS011;5056;44.272;19.892;2022-07-04T00:09:51;12.40;;;11.55;;
10031;SDS011;5056;44.272;19.892;2022-07-04T00:12:18;12.35;;;11.45;;
10031;SDS011;5056;44.272;19.892;2022-07-04T00:14:49;11.60;;;10.80;;
10031;SDS011;5056;44.272;19.892;2022-07-04T00:17:16;10.90;;;10.20;;
10031;SDS011;5056;44.272;19.892;2022-07-04T00:19:45;12.48;;;11.57;;
10031;SDS011;5056;44.272;19.892;2022-07-04T00:22:12;12.15;;;11.15;;
10031;SDS011;5056;44.272;19.892;2022-07-04T00:24:40;11.25;;;10.35;;
10031;SDS011;5056;44.272;19.892;2022-07-04T00:27:07;12.75;;;11.80;;
10031;SDS011;5056;44.272;19.892;2022-07-04T00:29:34;12.50;;;11.57;;
10031;SDS011;5056;44.272;19.892;2022-07-04T00:32:02;12.82;;;11.80;;
10031;SDS011;5056;44.272;19.892;2022-07-04T00:34:31;11.80;;;10.90;;
10031;SDS011;5056;44.272;19.892;2022-07-04T00:36:59;11.98;;;11.10;;
10031;SDS011;5056;44.272;19.892;2022-07-04T00:39:27;12.13;;;11.20;;
10031;SDS011;5056;44.272;19.892;2022-07-04T00:41:58;12.02;;;11.13;;
10031;SDS011;5056;44.272;19.892;2022-07-04T00:44:25;12.05;;;11.15;;
10031;SDS011;5056;44.272;19.892;2022-07-04T00:46:52;11.35;;;10.57;;
10031;SDS011;5056;44.272;19.892;2022-07-04T00:49:20;11.90;;;10.90;;
10031;SDS011;5056;44.272;19.892;2022-07-04T00:51:48;12.35;;;11.38;;
10031;SDS011;5056;44.272;19.892;2022-07-04T00:54:25;12.45;;;11.45;;
10031;SDS011;5056;44.272;19.892;2022-07-04T00:56:54;12.43;;;11.43;;
10031;SDS011;5056;44.272;19.892;2022-07-04T00:59:23;12.70;;;11.75;;
10031;SDS011;5056;44.272;19.892;2022-07-04T01:01:53;12.65;;;11.55;;
10031;SDS011;5056;44.272;19.892;2022-07-04T01:04:20;12.90;;;11.88;;
10031;SDS011;5056;44.272;19.892;2022-07-04T01:06:48;13.00;;;12.10;;
10031;SDS011;5056;44.272;19.892;2022-07-04T01:09:16;12.80;;;11.90;;
10031;SDS011;5056;44.272;19.892;2022-07-04T01:11:50;12.15;;;11.15;;
10031;SDS011;5056;44.272;19.892;2022-07-04T01:14:18;13.43;;;12.32;;
10031;SDS011;5056;44.272;19.892;2022-07-04T01:16:50;12.68;;;11.88;;
10031;SDS011;5056;44.272;19.892;2022-07-04T01:19:19;13.38;;;12.32;;
10031;SDS011;5056;44.272;19.892;2022-07-04T01:21:52;12.50;;;11.50;;
10031;SDS011;5056;44.272;19.892;2022-07-04T01:24:24;12.32;;;11.40;;
10031;SDS011;5056;44.272;19.892;2022-07-04T01:26:53;12.90;;;12.07;;
10031;SDS011;5056;44.272;19.892;2022-07-04T01:29:20;12.27;;;11.25;;
10031;SDS011;5056;44.272;19.892;2022-07-04T01:31:48;12.52;;;11.63;;
10031;SDS011;5056;44.272;19.892;2022-07-04T01:34:16;12.95;;;11.85;;
10031;SDS011;5056;44.272;19.892;2022-07-04T01:39:39;13.65;;;12.70;;
10031;SDS011;5056;44.272;19.892;2022-07-04T01:42:20;13.20;;;12.20;;
10031;SDS011;5056;44.272;19.892;2022-07-04T01:44:48;13.00;;;12.10;;
10031;SDS011;5056;44.272;19.892;2022-07-04T01:47:16;12.38;;;11.48;;
10031;SDS011;5056;44.272;19.892;2022-07-04T01:49:43;12.60;;;11.68;;
10031;SDS011;5056;44.272;19.892;2022-07-04T01:52:22;12.52;;;11.63;;
10031;SDS011;5056;44.272;19.892;2022-07-04T01:54:51;13.45;;;12.27;;
10031;SDS011;5056;44.272;19.892;2022-07-04T01:57:21;13.50;;;12.32;;
10031;SDS011;5056;44.272;19.892;2022-07-04T01:59:49;12.80;;;11.80;;
10031;SDS011;5056;44.272;19.892;2022-07-04T02:02:33;13.10;;;12.07;;
10031;SDS011;5056;44.272;19.892;2022-07-04T02:05:01;13.18;;;12.07;;
10031;SDS011;5056;44.272;19.892;2022-07-04T02:07:28;12.23;;;11.35;;
10031;SDS011;5056;44.272;19.892;2022-07-04T02:09:59;12.48;;;11.45;;
10031;SDS011;5056;44.272;19.892;2022-07-04T02:12:26;11.95;;;11.00;;
10031;SDS011;5056;44.272;19.892;2022-07-04T02:17:42;12.48;;;11.57;;
10031;SDS011;5056;44.272;19.892;2022-07-04T02:20:10;12.13;;;11.23;;
10031;SDS011;5056;44.272;19.892;2022-07-04T02:22:40;12.93;;;11.93;;
10031;SDS011;5056;44.272;19.892;2022-07-04T02:25:33;12.80;;;11.70;;
10031;SDS011;5056;44.272;19.892;2022-07-04T02:28:00;12.82;;;11.68;;
10031;SDS011;5056;44.272;19.892;2022-07-04T02:33:25;12.15;;;11.32;;
10031;SDS011;5056;44.272;19.892;2022-07-04T02:36:51;12.32;;;11.32;;
10031;SDS011;5056;44.272;19.892;2022-07-04T02:39:18;13.07;;;11.98;;
10031;SDS011;5056;44.272;19.892;2022-07-04T02:41:50;12.70;;;11.77;;
10031;SDS011;5056;44.272;19.892;2022-07-04T02:44:20;12.70;;;11.65;;
10031;SDS011;5056;44.272;19.892;2022-07-04T02:50:07;11.93;;;11.02;;
10031;SDS011;5056;44.272;19.892;2022-07-04T02:52:35;12.98;;;11.90;;
10031;SDS011;5056;44.272;19.892;2022-07-04T02:55:09;13.93;;;12.80;;
10031;SDS011;5056;44.272;19.892;2022-07-04T02:57:38;11.80;;;10.95;;
10031;SDS011;5056;44.272;19.892;2022-07-04T03:00:05;12.35;;;11.55;;
10031;SDS011;5056;44.272;19.892;2022-07-04T03:02:36;12.27;;;11.32;;
10031;SDS011;5056;44.272;19.892;2022-07-04T03:05:07;13.27;;;11.88;;
10031;SDS011;5056;44.272;19.892;2022-07-04T03:07:34;13.13;;;11.93;;
10031;SDS011;5056;44.272;19.892;2022-07-04T03:10:02;14.30;;;12.95;;
10031;SDS011;5056;44.272;19.892;2022-07-04T03:12:33;13.45;;;12.18;;
10031;SDS011;5056;44.272;19.892;2022-07-04T03:16:04;13.38;;;12.25;;
10031;SDS011;5056;44.272;19.892;2022-07-04T03:18:34;12.93;;;11.93;;
10031;SDS011;5056;44.272;19.892;2022-07-04T03:21:01;12.68;;;11.60;;
10031;SDS011;5056;44.272;19.892;2022-07-04T03:23:31;12.45;;;11.48;;
10031;SDS011;5056;44.272;19.892;2022-07-04T03:32:45;11.80;;;10.95;;
10031;SDS011;5056;44.272;19.892;2022-07-04T03:35:14;12.82;;;11.65;;
10031;SDS011;5056;44.272;19.892;2022-07-04T03:37:41;11.70;;;10.80;;
10031;SDS011;5056;44.272;19.892;2022-07-04T03:40:09;12.40;;;11.60;;
10031;SDS011;5056;44.272;19.892;2022-07-04T03:42:37;11.82;;;10.95;;
10031;SDS011;5056;44.272;19.892;2022-07-04T03:45:04;12.82;;;11.65;;
10031;SDS011;5056;44.272;19.892;2022-07-04T03:47:33;12.65;;;11.65;;
10031;SDS011;5056;44.272;19.892;2022-07-04T03:50:09;12.50;;;11.60;;
10031;SDS011;5056;44.272;19.892;2022-07-04T03:52:36;11.88;;;11.10;;
10031;SDS011;5056;44.272;19.892;2022-07-04T03:55:03;12.23;;;11.07;;
10031;SDS011;5056;44.272;19.892;2022-07-04T03:57:37;12.88;;;11.88;;
10031;SDS011;5056;44.272;19.892;2022-07-04T04:00:05;11.77;;;10.98;;
10031;SDS011;5056;44.272;19.892;2022-07-04T04:02:36;12.63;;;11.52;;
10031;SDS011;5056;44.272;19.892;2022-07-04T04:05:05;11.95;;;10.90;;
10031;SDS011;5056;44.272;19.892;2022-07-04T04:07:52;11.55;;;10.75;;
10031;SDS011;5056;44.272;19.892;2022-07-04T04:10:22;11.90;;;10.73;;
10031;SDS011;5056;44.272;19.892;2022-07-04T04:12:49;12.07;;;11.10;;
10031;SDS011;5056;44.272;19.892;2022-07-04T04:15:19;12.10;;;11.07;;
10031;SDS011;5056;44.272;19.892;2022-07-04T04:17:46;12.27;;;11.18;;
10031;SDS011;5056;44.272;19.892;2022-07-04T04:20:13;11.52;;;10.73;;
10031;SDS011;5056;44.272;19.892;2022-07-04T04:22:41;11.73;;;10.82;;
10031;SDS011;5056;44.272;19.892;2022-07-04T04:25:45;10.80;;;10.00;;
10031;SDS011;5056;44.272;19.892;2022-07-04T04:31:05;11.85;;;10.93;;
10031;SDS011;5056;44.272;19.892;2022-07-04T04:33:34;12.43;;;11.43;;
10031;SDS011;5056;44.272;19.892;2022-07-04T04:36:01;12.93;;;11.63;;
10031;SDS011;5056;44.272;19.892;2022-07-04T04:38:30;15.57;;;14.00;;
10031;SDS011;5056;44.272;19.892;2022-07-04T04:41:03;15.23;;;13.88;;
10031;SDS011;5056;44.272;19.892;2022-07-04T04:43:30;14.40;;;13.15;;
10031;SDS011;5056;44.272;19.892;2022-07-04T04:45:58;14.20;;;13.00;;
10031;SDS011;5056;44.272;19.892;2022-07-04T04:48:32;13.82;;;12.80;;
10031;SDS011;5056;44.272;19.892;2022-07-04T04:51:00;12.48;;;11.50;;
10031;SDS011;5056;44.272;19.892;2022-07-04T04:53:27;12.80;;;11.65;;
10031;SDS011;5056;44.272;19.892;2022-07-04T04:55:54;12.60;;;11.57;;
10031;SDS011;5056;44.272;19.892;2022-07-04T04:58:23;13.18;;;11.93;;
10031;SDS011;5056;44.272;19.892;2022-07-04T05:03:53;12.48;;;11.48;;
10031;SDS011;5056;44.272;19.892;2022-07-04T05:09:19;12.07;;;11.07;;
10031;SDS011;5056;44.272;19.892;2022-07-04T05:11:54;11.60;;;10.75;;
10031;SDS011;5056;44.272;19.892;2022-07-04T05:17:24;11.32;;;10.40;;
10031;SDS011;5056;44.272;19.892;2022-07-04T05:20:10;12.52;;;11.50;;
10031;SDS011;5056;44.272;19.892;2022-07-04T05:22:38;11.48;;;10.48;;
10031;SDS011;5056;44.272;19.892;2022-07-04T05:25:14;10.80;;;9.90;;
10031;SDS011;5056;44.272;19.892;2022-07-04T05:27:42;11.18;;;10.27;;
10031;SDS011;5056;44.272;19.892;2022-07-04T05:30:11;11.60;;;10.60;;
10031;SDS011;5056;44.272;19.892;2022-07-04T05:32:38;11.05;;;10.25;;
10031;SDS011;5056;44.272;19.892;2022-07-04T05:35:06;11.90;;;11.00;;
10031;SDS011;5056;44.272;19.892;2022-07-04T05:37:34;11.25;;;10.43;;
10031;SDS011;5056;44.272;19.892;2022-07-04T05:40:01;10.60;;;9.70;;
10031;SDS011;5056;44.272;19.892;2022-07-04T05:42:29;11.82;;;10.73;;
10031;SDS011;5056;44.272;19.892;2022-07-04T05:48:00;10.95;;;10.18;;
10031;SDS011;5056;44.272;19.892;2022-07-04T05:57:04;10.68;;;9.88;;
10031;SDS011;5056;44.272;19.892;2022-07-04T05:59:31;9.75;;;9.07;;
10031;SDS011;5056;44.272;19.892;2022-07-04T06:02:03;10.85;;;9.82;;
10031;SDS011;5056;44.272;19.892;2022-07-04T06:04:30;9.75;;;8.98;;
10031;SDS011;5056;44.272;19.892;2022-07-04T06:06:58;10.80;;;9.95;;
10031;SDS011;5056;44.272;19.892;2022-07-04T06:09:26;9.63;;;8.82;;
10031;SDS011;5056;44.272;19.892;2022-07-04T06:11:53;10.07;;;9.38;;
10031;SDS011;5056;44.272;19.892;2022-07-04T06:14:22;10.65;;;9.45;;
10031;SDS011;5056;44.272;19.892;2022-07-04T06:16:49;10.35;;;9.50;;
10031;SDS011;5056;44.272;19.892;2022-07-04T06:19:18;10.20;;;9.40;;
10031;SDS011;5056;44.272;19.892;2022-07-04T06:21:46;10.73;;;9.75;;
10031;SDS011;5056;44.272;19.892;2022-07-04T06:24:13;9.88;;;9.18;;
10031;SDS011;5056;44.272;19.892;2022-07-04T06:26:42;10.60;;;9.60;;
10031;SDS011;5056;44.272;19.892;2022-07-04T06:29:09;10.73;;;9.77;;
10031;SDS011;5056;44.272;19.892;2022-07-04T06:31:37;9.98;;;9.27;;
10031;SDS011;5056;44.272;19.892;2022-07-04T06:34:04;8.40;;;7.90;;
10031;SDS011;5056;44.272;19.892;2022-07-04T06:36:50;9.85;;;9.05;;
10031;SDS011;5056;44.272;19.892;2022-07-04T06:39:18;10.13;;;8.90;;
10031;SDS011;5056;44.272;19.892;2022-07-04T06:41:45;9.43;;;8.63;;
10031;SDS011;5056;44.272;19.892;2022-07-04T06:44:12;9.52;;;8.73;;
10031;SDS011;5056;44.272;19.892;2022-07-04T06:46:39;7.78;;;7.28;;
10031;SDS011;5056;44.272;19.892;2022-07-04T06:52:31;8.20;;;7.50;;
10031;SDS011;5056;44.272;19.892;2022-07-04T06:54:58;7.00;;;6.50;;
10031;SDS011;5056;44.272;19.892;2022-07-04T07:00:53;9.50;;;7.50;;
10031;SDS011;5056;44.272;19.892;2022-07-04T07:03:20;7.32;;;6.72;;
10031;SDS011;5056;44.272;19.892;2022-07-04T07:08:41;7.05;;;6.55;;
10031;SDS011;5056;44.272;19.892;2022-07-04T07:11:08;8.02;;;7.32;;
10031;SDS011;5056;44.272;19.892;2022-07-04T07:13:46;8.55;;;7.25;;
10031;SDS011;5056;44.272;19.892;2022-07-04T07:16:16;7.68;;;6.60;;
10031;SDS011;5056;44.272;19.892;2022-07-04T07:18:53;7.85;;;6.63;;
10031;SDS011;5056;44.272;19.892;2022-07-04T07:21:20;7.82;;;7.07;;
10031;SDS011;5056;44.272;19.892;2022-07-04T07:23:52;7.15;;;6.55;;
10031;SDS011;5056;44.272;19.892;2022-07-04T07:29:18;7.90;;;7.28;;
10031;SDS011;5056;44.272;19.892;2022-07-04T07:31:50;7.68;;;6.97;;
10031;SDS011;5056;44.272;19.892;2022-07-04T07:34:18;7.47;;;6.88;;
10031;SDS011;5056;44.272;19.892;2022-07-04T07:36:45;6.93;;;6.40;;
10031;SDS011;5056;44.272;19.892;2022-07-04T07:39:14;6.78;;;6.18;;
10031;SDS011;5056;44.272;19.892;2022-07-04T07:41:41;7.57;;;6.82;;
10031;SDS011;5056;44.272;19.892;2022-07-04T07:44:09;8.15;;;7.43;;
10031;SDS011;5056;44.272;19.892;2022-07-04T07:49:46;9.85;;;6.97;;
10031;SDS011;5056;44.272;19.892;2022-07-04T07:52:16;7.45;;;6.70;;
10031;SDS011;5056;44.272;19.892;2022-07-04T07:54:45;7.82;;;7.15;;
10031;SDS011;5056;44.272;19.892;2022-07-04T07:57:12;6.57;;;6.05;;
10031;SDS011;5056;44.272;19.892;2022-07-04T07:59:39;7.45;;;6.70;;
10031;SDS011;5056;44.272;19.892;2022-07-04T08:02:07;7.18;;;6.60;;
10031;SDS011;5056;44.272;19.892;2022-07-04T08:04:36;7.50;;;6.85;;
10031;SDS011;5056;44.272;19.892;2022-07-04T08:07:03;7.68;;;6.97;;
10031;SDS011;5056;44.272;19.892;2022-07-04T08:09:30;7.65;;;7.07;;
10031;SDS011;5056;44.272;19.892;2022-07-04T08:12:05;7.75;;;7.07;;
10031;SDS011;5056;44.272;19.892;2022-07-04T08:14:36;9.50;;;8.20;;
10031;SDS011;5056;44.272;19.892;2022-07-04T08:17:03;7.45;;;6.90;;
10031;SDS011;5056;44.272;19.892;2022-07-04T08:19:31;7.97;;;7.22;;
10031;SDS011;5056;44.272;19.892;2022-07-04T08:21:58;8.68;;;7.88;;
10031;SDS011;5056;44.272;19.892;2022-07-04T08:24:28;7.60;;;7.00;;
10031;SDS011;5056;44.272;19.892;2022-07-04T08:27:04;7.45;;;6.88;;
10031;SDS011;5056;44.272;19.892;2022-07-04T08:29:31;7.10;;;6.68;;
10031;SDS011;5056;44.272;19.892;2022-07-04T08:32:00;8.55;;;7.63;;
10031;SDS011;5056;44.272;19.892;2022-07-04T08:34:27;8.98;;;8.38;;
10031;SDS011;5056;44.272;19.892;2022-07-04T08:36:54;8.45;;;7.82;;
10031;SDS011;5056;44.272;19.892;2022-07-04T08:39:22;8.02;;;7.32;;
10031;SDS011;5056;44.272;19.892;2022-07-04T08:41:49;8.00;;;7.35;;
10031;SDS011;5056;44.272;19.892;2022-07-04T08:44:23;8.57;;;7.88;;
10031;SDS011;5056;44.272;19.892;2022-07-04T08:46:50;9.90;;;8.90;;
10031;SDS011;5056;44.272;19.892;2022-07-04T08:49:21;10.10;;;9.25;;
10031;SDS011;5056;44.272;19.892;2022-07-04T08:54:56;9.25;;;8.50;;
10031;SDS011;5056;44.272;19.892;2022-07-04T08:57:40;9.95;;;9.23;;
10031;SDS011;5056;44.272;19.892;2022-07-04T09:00:26;8.85;;;8.07;;
10031;SDS011;5056;44.272;19.892;2022-07-04T09:02:53;9.65;;;8.77;;
10031;SDS011;5056;44.272;19.892;2022-07-04T09:05:20;10.18;;;9.23;;
10031;SDS011;5056;44.272;19.892;2022-07-04T09:07:50;8.60;;;8.00;;
10031;SDS011;5056;44.272;19.892;2022-07-04T09:10:17;9.43;;;8.35;;
10031;SDS011;5056;44.272;19.892;2022-07-04T09:12:44;9.23;;;8.32;;
10031;SDS011;5056;44.272;19.892;2022-07-04T09:15:12;8.55;;;7.88;;
10031;SDS011;5056;44.272;19.892;2022-07-04T09:17:43;9.20;;;8.02;;
10031;SDS011;5056;44.272;19.892;2022-07-04T09:20:11;9.13;;;8.43;;
10031;SDS011;5056;44.272;19.892;2022-07-04T09:22:43;9.55;;;8.43;;
10031;SDS011;5056;44.272;19.892;2022-07-04T09:25:11;8.25;;;7.60;;
10031;SDS011;5056;44.272;19.892;2022-07-04T09:27:40;8.68;;;8.07;;
10031;SDS011;5056;44.272;19.892;2022-07-04T09:30:10;9.35;;;8.60;;
10031;SDS011;5056;44.272;19.892;2022-07-04T09:32:39;9.10;;;8.40;;
10031;SDS011;5056;44.272;19.892;2022-07-04T09:35:09;10.40;;;9.50;;
10031;SDS011;5056;44.272;19.892;2022-07-04T09:37:38;9.93;;;9.02;;
10031;SDS011;5056;44.272;19.892;2022-07-04T09:40:09;10.02;;;9.05;;
10031;SDS011;5056;44.272;19.892;2022-07-04T09:42:37;10.07;;;9.07;;
10031;SDS011;5056;44.272;19.892;2022-07-04T09:45:06;8.57;;;7.88;;
10031;SDS011;5056;44.272;19.892;2022-07-04T09:47:37;9.02;;;8.50;;
10031;SDS011;5056;44.272;19.892;2022-07-04T09:50:05;10.45;;;9.57;;
10031;SDS011;5056;44.272;19.892;2022-07-04T09:52:51;9.70;;;8.85;;
10031;SDS011;5056;44.272;19.892;2022-07-04T09:55:22;10.98;;;9.75;;
10031;SDS011;5056;44.272;19.892;2022-07-04T09:57:52;10.25;;;9.45;;
10031;SDS011;5056;44.272;19.892;2022-07-04T10:00:22;9.32;;;8.45;;
10031;SDS011;5056;44.272;19.892;2022-07-04T10:02:51;13.15;;;9.13;;
10031;SDS011;5056;44.272;19.892;2022-07-04T10:05:21;8.90;;;8.30;;
10031;SDS011;5056;44.272;19.892;2022-07-04T10:07:52;9.07;;;8.20;;
10031;SDS011;5056;44.272;19.892;2022-07-04T10:10:21;12.80;;;8.90;;
10031;SDS011;5056;44.272;19.892;2022-07-04T10:12:51;9.68;;;8.68;;
10031;SDS011;5056;44.272;19.892;2022-07-04T10:15:19;9.90;;;8.90;;
10031;SDS011;5056;44.272;19.892;2022-07-04T10:17:46;9.43;;;8.73;;
10031;SDS011;5056;44.272;19.892;2022-07-04T10:20:16;11.02;;;8.95;;
10031;SDS011;5056;44.272;19.892;2022-07-04T10:22:43;9.90;;;8.90;;
10031;SDS011;5056;44.272;19.892;2022-07-04T10:25:13;11.35;;;9.85;;
10031;SDS011;5056;44.272;19.892;2022-07-04T10:27:40;9.25;;;8.45;;
10031;SDS011;5056;44.272;19.892;2022-07-04T10:30:09;11.25;;;9.25;;
10031;SDS011;5056;44.272;19.892;2022-07-04T10:32:39;9.68;;;8.73;;
10031;SDS011;5056;44.272;19.892;2022-07-04T10:35:12;9.85;;;8.90;;
10031;SDS011;5056;44.272;19.892;2022-07-04T10:40:43;9.85;;;8.95;;
10031;SDS011;5056;44.272;19.892;2022-07-04T10:49:48;10.48;;;9.57;;
10031;SDS011;5056;44.272;19.892;2022-07-04T10:52:22;10.60;;;9.80;;
10031;SDS011;5056;44.272;19.892;2022-07-04T10:54:49;10.35;;;9.55;;
10031;SDS011;5056;44.272;19.892;2022-07-04T10:57:30;10.15;;;9.40;;
10031;SDS011;5056;44.272;19.892;2022-07-04T11:00:05;13.57;;;9.68;;
10031;SDS011;5056;44.272;19.892;2022-07-04T11:02:37;9.90;;;9.13;;
10031;SDS011;5056;44.272;19.892;2022-07-04T11:05:09;10.38;;;9.38;;
10031;SDS011;5056;44.272;19.892;2022-07-04T11:10:52;10.75;;;9.93;;
10031;SDS011;5056;44.272;19.892;2022-07-04T11:13:32;11.65;;;10.63;;
10031;SDS011;5056;44.272;19.892;2022-07-04T11:22:25;10.88;;;10.10;;
10031;SDS011;5056;44.272;19.892;2022-07-04T11:24:53;12.95;;;11.65;;
10031;SDS011;5056;44.272;19.892;2022-07-04T11:27:21;13.07;;;11.98;;
10031;SDS011;5056;44.272;19.892;2022-07-04T11:29:51;12.02;;;11.02;;
10031;SDS011;5056;44.272;19.892;2022-07-04T11:32:21;13.82;;;12.50;;
10031;SDS011;5056;44.272;19.892;2022-07-04T11:34:50;13.80;;;12.40;;
10031;SDS011;5056;44.272;19.892;2022-07-04T11:37:17;13.20;;;11.95;;
10031;SDS011;5056;44.272;19.892;2022-07-04T11:40:00;13.68;;;12.57;;
10031;SDS011;5056;44.272;19.892;2022-07-04T11:42:41;13.43;;;12.32;;
10031;SDS011;5056;44.272;19.892;2022-07-04T11:45:49;13.13;;;11.98;;
10031;SDS011;5056;44.272;19.892;2022-07-04T11:48:26;14.18;;;12.85;;
10031;SDS011;5056;44.272;19.892;2022-07-04T11:50:54;15.00;;;13.68;;
10031;SDS011;5056;44.272;19.892;2022-07-04T11:53:21;12.93;;;11.98;;
10031;SDS011;5056;44.272;19.892;2022-07-04T11:55:55;12.73;;;11.70;;
10031;SDS011;5056;44.272;19.892;2022-07-04T11:58:37;14.02;;;13.02;;
10031;SDS011;5056;44.272;19.892;2022-07-04T12:01:14;13.20;;;12.00;;
10031;SDS011;5056;44.272;19.892;2022-07-04T12:04:12;13.38;;;12.07;;
10031;SDS011;5056;44.272;19.892;2022-07-04T12:06:41;13.75;;;12.50;;
10031;SDS011;5056;44.272;19.892;2022-07-04T12:09:08;14.75;;;13.45;;
10031;SDS011;5056;44.272;19.892;2022-07-04T12:11:55;14.50;;;13.30;;
10031;SDS011;5056;44.272;19.892;2022-07-04T12:14:23;13.70;;;12.35;;
10031;SDS011;5056;44.272;19.892;2022-07-04T12:20:15;13.10;;;12.02;;
10031;SDS011;5056;44.272;19.892;2022-07-04T12:22:44;14.70;;;13.45;;
10031;SDS011;5056;44.272;19.892;2022-07-04T12:25:20;14.88;;;13.68;;
10031;SDS011;5056;44.272;19.892;2022-07-04T12:27:57;14.00;;;12.90;;
10031;SDS011;5056;44.272;19.892;2022-07-04T12:33:17;15.55;;;14.35;;
10031;SDS011;5056;44.272;19.892;2022-07-04T12:38:41;15.65;;;14.45;;
10031;SDS011;5056;44.272;19.892;2022-07-04T12:41:10;15.27;;;13.95;;
10031;SDS011;5056;44.272;19.892;2022-07-04T12:43:47;16.10;;;14.52;;
10031;SDS011;5056;44.272;19.892;2022-07-04T12:46:46;16.35;;;14.98;;
10031;SDS011;5056;44.272;19.892;2022-07-04T12:49:16;16.08;;;14.43;;
10031;SDS011;5056;44.272;19.892;2022-07-04T12:51:47;15.10;;;14.10;;
10031;SDS011;5056;44.272;19.892;2022-07-04T12:57:36;12.80;;;11.88;;
10031;SDS011;5056;44.272;19.892;2022-07-04T13:00:05;14.40;;;13.32;;
10031;SDS011;5056;44.272;19.892;2022-07-04T13:02:34;14.65;;;13.50;;
10031;SDS011;5056;44.272;19.892;2022-07-04T13:05:02;15.38;;;13.95;;
10031;SDS011;5056;44.272;19.892;2022-07-04T13:07:34;13.95;;;12.65;;
10031;SDS011;5056;44.272;19.892;2022-07-04T13:10:01;15.05;;;13.82;;
10031;SDS011;5056;44.272;19.892;2022-07-04T13:12:27;14.20;;;13.10;;
10031;SDS011;5056;44.272;19.892;2022-07-04T13:14:57;15.27;;;13.93;;
10031;SDS011;5056;44.272;19.892;2022-07-04T13:17:24;15.90;;;14.48;;
10031;SDS011;5056;44.272;19.892;2022-07-04T13:19:52;14.30;;;12.98;;
10031;SDS011;5056;44.272;19.892;2022-07-04T13:22:21;13.88;;;12.77;;
10031;SDS011;5056;44.272;19.892;2022-07-04T13:24:50;13.05;;;12.15;;
10031;SDS011;5056;44.272;19.892;2022-07-04T13:27:17;14.90;;;13.70;;
10031;SDS011;5056;44.272;19.892;2022-07-04T13:29:45;14.43;;;13.32;;
10031;SDS011;5056;44.272;19.892;2022-07-04T13:32:12;14.10;;;12.98;;
10031;SDS011;5056;44.272;19.892;2022-07-04T13:34:38;16.15;;;14.65;;
10031;SDS011;5056;44.272;19.892;2022-07-04T13:37:08;16.25;;;14.85;;
10031;SDS011;5056;44.272;19.892;2022-07-04T13:39:36;17.55;;;16.10;;
10031;SDS011;5056;44.272;19.892;2022-07-04T13:45:28;16.25;;;14.65;;
10031;SDS011;5056;44.272;19.892;2022-07-04T13:47:58;15.63;;;14.32;;
10031;SDS011;5056;44.272;19.892;2022-07-04T13:50:29;14.68;;;13.57;;
10031;SDS011;5056;44.272;19.892;2022-07-04T13:52:56;15.18;;;14.07;;
10031;SDS011;5056;44.272;19.892;2022-07-04T13:58:24;15.20;;;14.00;;
10031;SDS011;5056;44.272;19.892;2022-07-04T14:03:50;14.80;;;13.23;;
10031;SDS011;5056;44.272;19.892;2022-07-04T14:09:54;16.52;;;15.13;;
10031;SDS011;5056;44.272;19.892;2022-07-04T14:12:22;16.02;;;14.88;;
10031;SDS011;5056;44.272;19.892;2022-07-04T14:14:55;15.95;;;14.65;;
10031;SDS011;5056;44.272;19.892;2022-07-04T14:17:25;16.85;;;15.20;;
10031;SDS011;5056;44.272;19.892;2022-07-04T14:19:53;15.95;;;14.70;;
10031;SDS011;5056;44.272;19.892;2022-07-04T14:22:20;16.00;;;14.50;;
10031;SDS011;5056;44.272;19.892;2022-07-04T14:24:48;15.98;;;14.70;;
10031;SDS011;5056;44.272;19.892;2022-07-04T14:27:14;17.50;;;15.98;;
10031;SDS011;5056;44.272;19.892;2022-07-04T14:29:44;16.30;;;14.90;;
10031;SDS011;5056;44.272;19.892;2022-07-04T14:32:12;16.33;;;15.13;;
10031;SDS011;5056;44.272;19.892;2022-07-04T14:34:39;16.90;;;15.40;;
10031;SDS011;5056;44.272;19.892;2022-07-04T14:37:06;17.95;;;16.25;;
10031;SDS011;5056;44.272;19.892;2022-07-04T14:39:34;17.85;;;16.55;;
10031;SDS011;5056;44.272;19.892;2022-07-04T14:42:01;17.88;;;16.10;;
10031;SDS011;5056;44.272;19.892;2022-07-04T14:44:28;18.17;;;16.55;;
10031;SDS011;5056;44.272;19.892;2022-07-04T14:46:56;15.43;;;14.32;;
10031;SDS011;5056;44.272;19.892;2022-07-04T14:49:24;18.38;;;15.93;;
10031;SDS011;5056;44.272;19.892;2022-07-04T14:51:51;16.38;;;15.18;;
10031;SDS011;5056;44.272;19.892;2022-07-04T14:54:23;17.30;;;15.98;;
10031;SDS011;5056;44.272;19.892;2022-07-04T14:56:50;17.27;;;15.88;;
10031;SDS011;5056;44.272;19.892;2022-07-04T14:59:18;17.77;;;16.48;;
10031;SDS011;5056;44.272;19.892;2022-07-04T15:01:46;18.85;;;17.40;;
10031;SDS011;5056;44.272;19.892;2022-07-04T15:04:15;18.52;;;17.10;;
10031;SDS011;5056;44.272;19.892;2022-07-04T15:06:45;17.15;;;15.68;;
10031;SDS011;5056;44.272;19.892;2022-07-04T15:12:34;17.02;;;15.82;;
10031;SDS011;5056;44.272;19.892;2022-07-04T15:15:01;17.08;;;15.52;;
10031;SDS011;5056;44.272;19.892;2022-07-04T15:17:30;16.95;;;15.65;;
10031;SDS011;5056;44.272;19.892;2022-07-04T15:19:57;18.25;;;16.67;;
10031;SDS011;5056;44.272;19.892;2022-07-04T15:22:45;21.25;;;19.38;;
10031;SDS011;5056;44.272;19.892;2022-07-04T15:25:30;18.75;;;17.30;;
10031;SDS011;5056;44.272;19.892;2022-07-04T15:31:19;18.35;;;16.95;;
10031;SDS011;5056;44.272;19.892;2022-07-04T15:33:48;17.33;;;16.02;;
10031;SDS011;5056;44.272;19.892;2022-07-04T15:36:15;16.23;;;14.82;;
10031;SDS011;5056;44.272;19.892;2022-07-04T15:44:51;19.25;;;17.70;;
10031;SDS011;5056;44.272;19.892;2022-07-04T15:47:19;18.60;;;17.10;;
10031;SDS011;5056;44.272;19.892;2022-07-04T15:49:46;17.08;;;15.38;;
10031;SDS011;5056;44.272;19.892;2022-07-04T15:52:17;15.57;;;14.30;;
10031;SDS011;5056;44.272;19.892;2022-07-04T15:54:44;16.08;;;14.98;;
10031;SDS011;5056;44.272;19.892;2022-07-04T15:57:11;18.55;;;16.75;;
10031;SDS011;5056;44.272;19.892;2022-07-04T15:59:41;19.48;;;17.95;;
10031;SDS011;5056;44.272;19.892;2022-07-04T16:02:08;18.23;;;16.83;;
10031;SDS011;5056;44.272;19.892;2022-07-04T16:04:37;16.60;;;15.43;;
10031;SDS011;5056;44.272;19.892;2022-07-04T16:07:04;16.52;;;15.05;;
10031;SDS011;5056;44.272;19.892;2022-07-04T16:09:31;17.55;;;16.05;;
10031;SDS011;5056;44.272;19.892;2022-07-04T16:11:58;18.85;;;17.25;;
10031;SDS011;5056;44.272;19.892;2022-07-04T16:14:26;16.73;;;15.52;;
10031;SDS011;5056;44.272;19.892;2022-07-04T16:16:55;17.15;;;15.88;;
10031;SDS011;5056;44.272;19.892;2022-07-04T16:19:23;16.08;;;14.88;;
10031;SDS011;5056;44.272;19.892;2022-07-04T16:21:50;18.30;;;16.42;;
10031;SDS011;5056;44.272;19.892;2022-07-04T16:24:17;16.02;;;14.90;;
10031;SDS011;5056;44.272;19.892;2022-07-04T16:26:47;17.55;;;15.85;;
10031;SDS011;5056;44.272;19.892;2022-07-04T16:29:17;17.42;;;16.13;;
10031;SDS011;5056;44.272;19.892;2022-07-04T16:31:46;16.80;;;15.45;;
10031;SDS011;5056;44.272;19.892;2022-07-04T16:34:14;17.02;;;15.73;;
10031;SDS011;5056;44.272;19.892;2022-07-04T16:36:41;17.83;;;16.42;;
10031;SDS011;5056;44.272;19.892;2022-07-04T16:39:08;15.52;;;14.25;;
10031;SDS011;5056;44.272;19.892;2022-07-04T16:41:35;15.30;;;14.10;;
10031;SDS011;5056;44.272;19.892;2022-07-04T16:44:03;16.13;;;14.70;;